sensor_id;sensor_type;location;lat;lon;timestamp;temperature;humidity
5711;DHT22;61291;52.524;13.422;2022-11-13T00:00:56;11.00;99.90
5711;DHT22;61291;52.524;13.422;2022-11-13T00:03:22;11.00;99.90
5711;DHT22;61291;52.524;13.422;2022-11-13T00:05:47;11.00;99.90
5711;DHT22;61291;52.524;13.422;2022-11-13T00:08:13;11.10;99.90
5711;DHT22;61291;52.524;13.422;2022-11-13T00:10:39;11.10;99.90
5711;DHT22;61291;52.524;13.422;2022-11-13T00:13:04;11.20;99.90
5711;DHT22;61291;52.524;13.422;2022-11-13T00:15:30;11.20;99.90
5711;DHT22;61291;52.524;13.422;2022-11-13T00:17:59;11.20;99.90
5711;DHT22;61291;52.524;13.422;2022-11-13T00:20:25;11.20;99.90
5711;DHT22;61291;52.524;13.422;2022-11-13T00:22:50;11.20;99.90
5711;DHT22;61291;52.524;13.422;2022-11-13T00:25:16;11.20;99.90
5711;DHT22;61291;52.524;13.422;2022-11-13T00:27:41;11.20;99.90
5711;DHT22;61291;52.524;13.422;2022-11-13T00:30:07;11.30;99.90
5711;DHT22;61291;52.524;13.422;2022-11-13T00:32:33;11.20;99.90
5711;DHT22;61291;52.524;13.422;2022-11-13T00:34:58;11.40;99.90
5711;DHT22;61291;52.524;13.422;2022-11-13T00:37:24;11.40;99.90
5711;DHT22;61291;52.524;13.422;2022-11-13T00:39:49;11.40;99.90
5711;DHT22;61291;52.524;13.422;2022-11-13T00:42:14;11.40;99.90
5711;DHT22;61291;52.524;13.422;2022-11-13T00:44:40;11.50;99.90
5711;DHT22;61291;52.524;13.422;2022-11-13T00:47:05;11.50;99.90
5711;DHT22;61291;52.524;13.422;2022-11-13T00:49:31;11.50;99.90
5711;DHT22;61291;52.524;13.422;2022-11-13T00:51:56;11.50;99.90
5711;DHT22;61291;52.524;13.422;2022-11-13T00:54:24;11.50;99.90
5711;DHT22;61291;52.524;13.422;2022-11-13T00:56:50;11.50;99.90
5711;DHT22;61291;52.524;13.422;2022-11-13T00:59:15;11.50;99.90
5711;DHT22;61291;52.524;13.422;2022-11-13T01:01:40;11.50;99.90
5711;DHT22;61291;52.524;13.422;2022-11-13T01:04:06;11.50;99.90
5711;DHT22;61291;52.524;13.422;2022-11-13T01:06:31;11.50;99.90
5711;DHT22;61291;52.524;13.422;2022-11-13T01:08:58;11.50;99.90
5711;DHT22;61291;52.524;13.422;2022-11-13T01:11:27;11.50;99.90
5711;DHT22;61291;52.524;13.422;2022-11-13T01:13:53;11.50;99.90
5711;DHT22;61291;52.524;13.422;2022-11-13T01:16:21;11.50;99.90
5711;DHT22;61291;52.524;13.422;2022-11-13T01:18:47;11.50;99.90
5711;DHT22;61291;52.524;13.422;2022-11-13T01:21:18;11.50;99.90
5711;DHT22;61291;52.524;13.422;2022-11-13T01:23:45;11.40;99.90
5711;DHT22;61291;52.524;13.422;2022-11-13T01:26:14;11.50;99.90
5711;DHT22;61291;52.524;13.422;2022-11-13T01:28:41;11.50;99.90
5711;DHT22;61291;52.524;13.422;2022-11-13T01:31:09;11.50;99.90
5711;DHT22;61291;52.524;13.422;2022-11-13T01:33:35;11.40;99.90
5711;DHT22;61291;52.524;13.422;2022-11-13T01:36:03;11.50;99.90
5711;DHT22;61291;52.524;13.422;2022-11-13T01:38:30;11.50;99.90
5711;DHT22;61291;52.524;13.422;2022-11-13T01:40:55;11.50;99.90
5711;DHT22;61291;52.524;13.422;2022-11-13T01:43:24;11.50;99.90
5711;DHT22;61291;52.524;13.422;2022-11-13T01:46:19;11.50;99.90
5711;DHT22;61291;52.524;13.422;2022-11-13T01:49:13;11.50;99.90
5711;DHT22;61291;52.524;13.422;2022-11-13T01:51:55;11.40;99.90
5711;DHT22;61291;52.524;13.422;2022-11-13T01:54:25;11.50;99.90
5711;DHT22;61291;52.524;13.422;2022-11-13T01:56:52;11.60;99.90
5711;DHT22;61291;52.524;13.422;2022-11-13T01:59:31;11.60;99.90
5711;DHT22;61291;52.524;13.422;2022-11-13T02:01:59;11.60;99.90
5711;DHT22;61291;52.524;13.422;2022-11-13T02:04:25;11.60;99.90
5711;DHT22;61291;52.524;13.422;2022-11-13T02:06:55;11.60;99.90
5711;DHT22;61291;52.524;13.422;2022-11-13T02:09:25;11.60;99.90
5711;DHT22;61291;52.524;13.422;2022-11-13T02:11:52;11.50;99.90
5711;DHT22;61291;52.524;13.422;2022-11-13T02:14:19;11.60;99.90
5711;DHT22;61291;52.524;13.422;2022-11-13T02:16:48;11.60;99.90
5711;DHT22;61291;52.524;13.422;2022-11-13T02:19:25;11.50;99.90
5711;DHT22;61291;52.524;13.422;2022-11-13T02:22:24;11.60;99.90
5711;DHT22;61291;52.524;13.422;2022-11-13T02:24:55;11.60;99.90
5711;DHT22;61291;52.524;13.422;2022-11-13T02:27:35;11.60;99.90
5711;DHT22;61291;52.524;13.422;2022-11-13T02:32:48;11.50;99.90
5711;DHT22;61291;52.524;13.422;2022-11-13T02:35:26;11.50;99.90
5711;DHT22;61291;52.524;13.422;2022-11-13T02:37:59;11.50;99.90
5711;DHT22;61291;52.524;13.422;2022-11-13T02:40:25;11.50;99.90
5711;DHT22;61291;52.524;13.422;2022-11-13T02:42:51;11.60;99.90
5711;DHT22;61291;52.524;13.422;2022-11-13T02:45:16;11.50;99.90
5711;DHT22;61291;52.524;13.422;2022-11-13T02:47:42;11.50;99.90
5711;DHT22;61291;52.524;13.422;2022-11-13T02:50:09;11.60;99.90
5711;DHT22;61291;52.524;13.422;2022-11-13T02:52:35;11.50;99.90
5711;DHT22;61291;52.524;13.422;2022-11-13T02:55:01;11.60;99.90
5711;DHT22;61291;52.524;13.422;2022-11-13T02:57:26;11.50;99.90
5711;DHT22;61291;52.524;13.422;2022-11-13T02:59:52;11.50;99.90
5711;DHT22;61291;52.524;13.422;2022-11-13T03:02:17;11.50;99.90
5711;DHT22;61291;52.524;13.422;2022-11-13T03:04:43;11.50;99.90
5711;DHT22;61291;52.524;13.422;2022-11-13T03:07:10;11.50;99.90
5711;DHT22;61291;52.524;13.422;2022-11-13T03:09:36;11.50;99.90
5711;DHT22;61291;52.524;13.422;2022-11-13T03:12:01;11.50;99.90
5711;DHT22;61291;52.524;13.422;2022-11-13T03:14:27;11.50;99.90
5711;DHT22;61291;52.524;13.422;2022-11-13T03:16:52;11.50;99.90
5711;DHT22;61291;52.524;13.422;2022-11-13T03:19:17;11.50;99.90
5711;DHT22;61291;52.524;13.422;2022-11-13T03:21:43;11.50;99.90
5711;DHT22;61291;52.524;13.422;2022-11-13T03:24:08;11.50;99.90
5711;DHT22;61291;52.524;13.422;2022-11-13T03:26:34;11.50;99.90
5711;DHT22;61291;52.524;13.422;2022-11-13T03:29:00;11.50;99.90
5711;DHT22;61291;52.524;13.422;2022-11-13T03:31:25;11.50;99.90
5711;DHT22;61291;52.524;13.422;2022-11-13T03:33:52;11.50;99.90
5711;DHT22;61291;52.524;13.422;2022-11-13T03:36:18;11.50;99.90
5711;DHT22;61291;52.524;13.422;2022-11-13T03:38:44;11.50;99.90
5711;DHT22;61291;52.524;13.422;2022-11-13T03:41:09;11.50;99.90
5711;DHT22;61291;52.524;13.422;2022-11-13T03:43:35;11.50;99.90
5711;DHT22;61291;52.524;13.422;2022-11-13T03:46:00;11.50;99.90
5711;DHT22;61291;52.524;13.422;2022-11-13T03:48:25;11.50;99.90
5711;DHT22;61291;52.524;13.422;2022-11-13T03:50:53;11.50;99.90
5711;DHT22;61291;52.524;13.422;2022-11-13T03:53:19;11.50;99.90
5711;DHT22;61291;52.524;13.422;2022-11-13T03:55:44;11.50;99.90
5711;DHT22;61291;52.524;13.422;2022-11-13T03:58:11;11.50;99.90
5711;DHT22;61291;52.524;13.422;2022-11-13T04:00:38;11.50;99.90
5711;DHT22;61291;52.524;13.422;2022-11-13T04:03:04;11.50;99.90
5711;DHT22;61291;52.524;13.422;2022-11-13T04:05:29;11.50;99.90
5711;DHT22;61291;52.524;13.422;2022-11-13T04:07:55;11.50;99.90
5711;DHT22;61291;52.524;13.422;2022-11-13T04:10:21;11.50;99.90
5711;DHT22;61291;52.524;13.422;2022-11-13T04:12:46;11.50;99.90
5711;DHT22;61291;52.524;13.422;2022-11-13T04:15:12;11.50;99.90
5711;DHT22;61291;52.524;13.422;2022-11-13T04:17:37;11.50;99.90
5711;DHT22;61291;52.524;13.422;2022-11-13T04:20:03;11.50;99.90
5711;DHT22;61291;52.524;13.422;2022-11-13T04:22:29;11.50;99.90
5711;DHT22;61291;52.524;13.422;2022-11-13T04:24:54;11.50;99.90
5711;DHT22;61291;52.524;13.422;2022-11-13T04:27:20;11.50;99.90
5711;DHT22;61291;52.524;13.422;2022-11-13T04:29:45;11.50;99.90
5711;DHT22;61291;52.524;13.422;2022-11-13T04:32:11;11.60;99.90
5711;DHT22;61291;52.524;13.422;2022-11-13T04:34:36;11.60;99.90
5711;DHT22;61291;52.524;13.422;2022-11-13T04:37:02;11.50;99.90
5711;DHT22;61291;52.524;13.422;2022-11-13T04:39:27;11.50;99.90
5711;DHT22;61291;52.524;13.422;2022-11-13T04:41:53;11.50;99.90
5711;DHT22;61291;52.524;13.422;2022-11-13T04:44:37;11.50;99.90
5711;DHT22;61291;52.524;13.422;2022-11-13T04:47:03;11.50;99.90
5711;DHT22;61291;52.524;13.422;2022-11-13T04:49:28;11.50;99.90
5711;DHT22;61291;52.524;13.422;2022-11-13T04:51:53;11.40;99.90
5711;DHT22;61291;52.524;13.422;2022-11-13T04:54:19;11.40;99.90
5711;DHT22;61291;52.524;13.422;2022-11-13T04:56:45;11.40;99.90
5711;DHT22;61291;52.524;13.422;2022-11-13T04:59:10;11.40;99.90
5711;DHT22;61291;52.524;13.422;2022-11-13T05:01:36;11.30;99.90
5711;DHT22;61291;52.524;13.422;2022-11-13T05:04:01;11.40;99.90
5711;DHT22;61291;52.524;13.422;2022-11-13T05:06:27;11.30;99.90
5711;DHT22;61291;52.524;13.422;2022-11-13T05:08:53;11.40;99.90
5711;DHT22;61291;52.524;13.422;2022-11-13T05:11:18;11.30;99.90
5711;DHT22;61291;52.524;13.422;2022-11-13T05:13:44;11.30;99.90
5711;DHT22;61291;52.524;13.422;2022-11-13T05:16:12;11.30;99.90
5711;DHT22;61291;52.524;13.422;2022-11-13T05:18:38;11.40;99.90
5711;DHT22;61291;52.524;13.422;2022-11-13T05:21:05;11.30;99.90
5711;DHT22;61291;52.524;13.422;2022-11-13T05:23:31;11.30;99.90
5711;DHT22;61291;52.524;13.422;2022-11-13T05:26:08;11.30;99.90
5711;DHT22;61291;52.524;13.422;2022-11-13T05:28:34;11.30;99.90
5711;DHT22;61291;52.524;13.422;2022-11-13T05:31:11;11.30;99.90
5711;DHT22;61291;52.524;13.422;2022-11-13T05:33:37;11.30;99.90
5711;DHT22;61291;52.524;13.422;2022-11-13T05:36:05;11.30;99.90
5711;DHT22;61291;52.524;13.422;2022-11-13T05:38:31;11.30;99.90
5711;DHT22;61291;52.524;13.422;2022-11-13T05:41:05;11.30;99.90
5711;DHT22;61291;52.524;13.422;2022-11-13T05:43:31;11.40;99.90
5711;DHT22;61291;52.524;13.422;2022-11-13T05:46:05;11.40;99.90
5711;DHT22;61291;52.524;13.422;2022-11-13T05:48:31;11.40;99.90
5711;DHT22;61291;52.524;13.422;2022-11-13T05:51:02;11.40;99.90
5711;DHT22;61291;52.524;13.422;2022-11-13T05:53:28;11.40;99.90
5711;DHT22;61291;52.524;13.422;2022-11-13T05:55:59;11.30;99.90
5711;DHT22;61291;52.524;13.422;2022-11-13T05:58:25;11.40;99.90
5711;DHT22;61291;52.524;13.422;2022-11-13T06:00:50;11.30;99.90
5711;DHT22;61291;52.524;13.422;2022-11-13T06:03:15;11.40;99.90
5711;DHT22;61291;52.524;13.422;2022-11-13T06:05:41;11.30;99.90
5711;DHT22;61291;52.524;13.422;2022-11-13T06:08:06;11.40;99.90
5711;DHT22;61291;52.524;13.422;2022-11-13T06:10:32;11.40;99.90
5711;DHT22;61291;52.524;13.422;2022-11-13T06:12:57;11.40;99.90
5711;DHT22;61291;52.524;13.422;2022-11-13T06:15:23;11.40;99.90
5711;DHT22;61291;52.524;13.422;2022-11-13T06:17:48;11.40;99.90
5711;DHT22;61291;52.524;13.422;2022-11-13T06:20:14;11.30;99.90
5711;DHT22;61291;52.524;13.422;2022-11-13T06:22:40;11.40;99.90
5711;DHT22;61291;52.524;13.422;2022-11-13T06:25:05;11.40;99.90
5711;DHT22;61291;52.524;13.422;2022-11-13T06:27:31;11.30;99.90
5711;DHT22;61291;52.524;13.422;2022-11-13T06:29:57;11.30;99.90
5711;DHT22;61291;52.524;13.422;2022-11-13T06:32:22;11.30;99.90
5711;DHT22;61291;52.524;13.422;2022-11-13T06:34:48;11.30;99.90
5711;DHT22;61291;52.524;13.422;2022-11-13T06:37:13;11.30;99.90
5711;DHT22;61291;52.524;13.422;2022-11-13T06:39:38;11.30;99.90
5711;DHT22;61291;52.524;13.422;2022-11-13T06:42:04;11.30;99.90
5711;DHT22;61291;52.524;13.422;2022-11-13T06:44:29;11.30;99.90
5711;DHT22;61291;52.524;13.422;2022-11-13T06:46:55;11.30;99.90
5711;DHT22;61291;52.524;13.422;2022-11-13T06:49:20;11.30;99.90
5711;DHT22;61291;52.524;13.422;2022-11-13T06:51:46;11.40;99.90
5711;DHT22;61291;52.524;13.422;2022-11-13T06:54:11;11.50;99.90
5711;DHT22;61291;52.524;13.422;2022-11-13T06:56:37;11.50;99.90
5711;DHT22;61291;52.524;13.422;2022-11-13T06:59:08;11.50;99.90
5711;DHT22;61291;52.524;13.422;2022-11-13T07:01:33;11.50;99.90
5711;DHT22;61291;52.524;13.422;2022-11-13T07:03:59;11.60;99.90
5711;DHT22;61291;52.524;13.422;2022-11-13T07:06:24;11.60;99.90
5711;DHT22;61291;52.524;13.422;2022-11-13T07:08:50;11.60;99.90
5711;DHT22;61291;52.524;13.422;2022-11-13T07:11:18;11.50;99.90
5711;DHT22;61291;52.524;13.422;2022-11-13T07:13:44;11.50;99.90
5711;DHT22;61291;52.524;13.422;2022-11-13T07:16:11;11.50;99.90
5711;DHT22;61291;52.524;13.422;2022-11-13T07:18:36;11.50;99.90
5711;DHT22;61291;52.524;13.422;2022-11-13T07:21:04;11.50;99.90
5711;DHT22;61291;52.524;13.422;2022-11-13T07:23:31;11.50;99.90
5711;DHT22;61291;52.524;13.422;2022-11-13T07:25:56;11.40;99.90
5711;DHT22;61291;52.524;13.422;2022-11-13T07:28:22;11.40;99.90
5711;DHT22;61291;52.524;13.422;2022-11-13T07:30:47;11.50;99.90
5711;DHT22;61291;52.524;13.422;2022-11-13T07:33:13;11.60;99.90
5711;DHT22;61291;52.524;13.422;2022-11-13T07:35:39;11.60;99.90
5711;DHT22;61291;52.524;13.422;2022-11-13T07:38:04;11.70;99.90
5711;DHT22;61291;52.524;13.422;2022-11-13T07:40:29;11.80;99.90
5711;DHT22;61291;52.524;13.422;2022-11-13T07:42:59;11.70;99.90
5711;DHT22;61291;52.524;13.422;2022-11-13T07:45:25;11.70;99.90
5711;DHT22;61291;52.524;13.422;2022-11-13T07:47:56;11.70;99.90
5711;DHT22;61291;52.524;13.422;2022-11-13T07:50:22;11.70;99.90
5711;DHT22;61291;52.524;13.422;2022-11-13T07:52:48;11.70;99.90
5711;DHT22;61291;52.524;13.422;2022-11-13T07:55:13;11.70;99.90
5711;DHT22;61291;52.524;13.422;2022-11-13T07:57:39;11.80;99.90
5711;DHT22;61291;52.524;13.422;2022-11-13T08:00:05;11.80;99.90
5711;DHT22;61291;52.524;13.422;2022-11-13T08:02:30;11.90;99.90
5711;DHT22;61291;52.524;13.422;2022-11-13T08:04:56;12.00;99.90
5711;DHT22;61291;52.524;13.422;2022-11-13T08:07:21;12.00;99.90
5711;DHT22;61291;52.524;13.422;2022-11-13T08:09:47;12.00;99.90
5711;DHT22;61291;52.524;13.422;2022-11-13T08:12:12;12.10;99.90
5711;DHT22;61291;52.524;13.422;2022-11-13T08:14:38;12.10;99.90
5711;DHT22;61291;52.524;13.422;2022-11-13T08:17:03;12.20;99.90
5711;DHT22;61291;52.524;13.422;2022-11-13T08:19:29;12.20;99.90
5711;DHT22;61291;52.524;13.422;2022-11-13T08:21:54;12.20;99.90
5711;DHT22;61291;52.524;13.422;2022-11-13T08:24:20;12.20;99.90
5711;DHT22;61291;52.524;13.422;2022-11-13T08:26:45;12.20;99.90
5711;DHT22;61291;52.524;13.422;2022-11-13T08:29:11;12.20;99.90
5711;DHT22;61291;52.524;13.422;2022-11-13T08:31:36;12.30;99.90
5711;DHT22;61291;52.524;13.422;2022-11-13T08:34:02;12.30;99.90
5711;DHT22;61291;52.524;13.422;2022-11-13T08:36:27;12.30;99.90
5711;DHT22;61291;52.524;13.422;2022-11-13T08:38:53;12.30;99.90
5711;DHT22;61291;52.524;13.422;2022-11-13T08:41:18;12.40;99.90
5711;DHT22;61291;52.524;13.422;2022-11-13T08:43:44;12.40;99.90
5711;DHT22;61291;52.524;13.422;2022-11-13T08:46:09;12.30;99.90
5711;DHT22;61291;52.524;13.422;2022-11-13T08:48:35;12.30;99.90
5711;DHT22;61291;52.524;13.422;2022-11-13T08:51:02;12.40;99.90
5711;DHT22;61291;52.524;13.422;2022-11-13T08:53:27;12.50;99.90
5711;DHT22;61291;52.524;13.422;2022-11-13T08:55:53;12.50;99.90
5711;DHT22;61291;52.524;13.422;2022-11-13T08:58:18;12.60;99.90
5711;DHT22;61291;52.524;13.422;2022-11-13T09:00:44;12.60;99.90
5711;DHT22;61291;52.524;13.422;2022-11-13T09:03:10;12.60;99.90
5711;DHT22;61291;52.524;13.422;2022-11-13T09:05:36;12.70;99.90
5711;DHT22;61291;52.524;13.422;2022-11-13T09:08:03;12.70;99.90
5711;DHT22;61291;52.524;13.422;2022-11-13T09:10:28;12.80;99.90
5711;DHT22;61291;52.524;13.422;2022-11-13T09:12:58;12.80;99.90
5711;DHT22;61291;52.524;13.422;2022-11-13T09:15:26;12.80;99.90
5711;DHT22;61291;52.524;13.422;2022-11-13T09:17:55;12.80;99.90
5711;DHT22;61291;52.524;13.422;2022-11-13T09:20:21;12.80;99.90
5711;DHT22;61291;52.524;13.422;2022-11-13T09:22:47;12.80;99.90
5711;DHT22;61291;52.524;13.422;2022-11-13T09:25:12;12.80;99.90
5711;DHT22;61291;52.524;13.422;2022-11-13T09:27:38;12.70;99.90
5711;DHT22;61291;52.524;13.422;2022-11-13T09:30:03;12.70;99.90
5711;DHT22;61291;52.524;13.422;2022-11-13T09:32:30;12.80;99.90
5711;DHT22;61291;52.524;13.422;2022-11-13T09:34:55;12.80;99.90
5711;DHT22;61291;52.524;13.422;2022-11-13T09:37:21;12.80;99.90
5711;DHT22;61291;52.524;13.422;2022-11-13T09:39:46;12.80;99.90
5711;DHT22;61291;52.524;13.422;2022-11-13T09:42:16;12.90;99.90
5711;DHT22;61291;52.524;13.422;2022-11-13T09:44:52;12.90;99.90
5711;DHT22;61291;52.524;13.422;2022-11-13T09:47:43;13.00;99.90
5711;DHT22;61291;52.524;13.422;2022-11-13T09:50:21;13.10;99.90
5711;DHT22;61291;52.524;13.422;2022-11-13T09:52:47;13.10;99.90
5711;DHT22;61291;52.524;13.422;2022-11-13T09:55:18;13.20;99.90
5711;DHT22;61291;52.524;13.422;2022-11-13T09:57:59;13.20;99.90
5711;DHT22;61291;52.524;13.422;2022-11-13T10:00:28;13.30;99.90
5711;DHT22;61291;52.524;13.422;2022-11-13T10:03:18;13.30;99.90
5711;DHT22;61291;52.524;13.422;2022-11-13T10:06:18;13.30;99.90
5711;DHT22;61291;52.524;13.422;2022-11-13T10:09:18;13.40;99.90
5711;DHT22;61291;52.524;13.422;2022-11-13T10:11:54;13.50;99.90
5711;DHT22;61291;52.524;13.422;2022-11-13T10:14:33;13.80;99.90
5711;DHT22;61291;52.524;13.422;2022-11-13T10:17:05;14.00;99.90
5711;DHT22;61291;52.524;13.422;2022-11-13T10:19:39;14.00;99.90
5711;DHT22;61291;52.524;13.422;2022-11-13T10:22:23;14.10;99.90
5711;DHT22;61291;52.524;13.422;2022-11-13T10:24:55;14.30;99.90
5711;DHT22;61291;52.524;13.422;2022-11-13T10:27:22;14.30;99.90
5711;DHT22;61291;52.524;13.422;2022-11-13T10:29:48;14.40;99.90
5711;DHT22;61291;52.524;13.422;2022-11-13T10:34:56;14.20;99.90
5711;DHT22;61291;52.524;13.422;2022-11-13T10:37:42;14.10;99.90
5711;DHT22;61291;52.524;13.422;2022-11-13T10:40:09;14.00;99.90
5711;DHT22;61291;52.524;13.422;2022-11-13T10:42:39;14.10;99.90
5711;DHT22;61291;52.524;13.422;2022-11-13T10:45:14;14.00;99.90
5711;DHT22;61291;52.524;13.422;2022-11-13T10:47:47;14.10;99.90
5711;DHT22;61291;52.524;13.422;2022-11-13T10:50:28;14.20;99.90
5711;DHT22;61291;52.524;13.422;2022-11-13T10:52:55;14.30;99.90
5711;DHT22;61291;52.524;13.422;2022-11-13T10:57:57;14.70;99.90
5711;DHT22;61291;52.524;13.422;2022-11-13T11:02:51;14.40;99.90
5711;DHT22;61291;52.524;13.422;2022-11-13T11:05:19;14.50;99.90
5711;DHT22;61291;52.524;13.422;2022-11-13T11:07:45;14.60;99.90
5711;DHT22;61291;52.524;13.422;2022-11-13T11:12:50;14.70;99.90
5711;DHT22;61291;52.524;13.422;2022-11-13T11:15:23;14.70;99.90
5711;DHT22;61291;52.524;13.422;2022-11-13T11:17:52;14.80;99.90
5711;DHT22;61291;52.524;13.422;2022-11-13T11:20:24;14.80;99.90
5711;DHT22;61291;52.524;13.422;2022-11-13T11:22:58;14.80;99.90
5711;DHT22;61291;52.524;13.422;2022-11-13T11:25:35;14.90;99.90
5711;DHT22;61291;52.524;13.422;2022-11-13T11:28:12;14.80;99.90
5711;DHT22;61291;52.524;13.422;2022-11-13T11:30:43;14.90;99.90
5711;DHT22;61291;52.524;13.422;2022-11-13T11:33:22;15.20;99.90
5711;DHT22;61291;52.524;13.422;2022-11-13T11:36:06;15.30;99.90
5711;DHT22;61291;52.524;13.422;2022-11-13T11:38:59;15.30;99.90
5711;DHT22;61291;52.524;13.422;2022-11-13T11:41:30;15.60;99.90
5711;DHT22;61291;52.524;13.422;2022-11-13T11:46:49;15.50;99.90
5711;DHT22;61291;52.524;13.422;2022-11-13T11:49:14;15.30;99.90
5711;DHT22;61291;52.524;13.422;2022-11-13T11:52:31;15.10;99.90
5711;DHT22;61291;52.524;13.422;2022-11-13T11:54:42;15.00;99.90
5711;DHT22;61291;52.524;13.422;2022-11-13T11:57:35;14.50;99.90
5711;DHT22;61291;52.524;13.422;2022-11-13T12:00:05;14.30;99.90
5711;DHT22;61291;52.524;13.422;2022-11-13T12:05:47;14.60;99.90
5711;DHT22;61291;52.524;13.422;2022-11-13T12:16:34;13.80;99.90
5711;DHT22;61291;52.524;13.422;2022-11-13T12:19:22;13.60;99.90
5711;DHT22;61291;52.524;13.422;2022-11-13T12:22:16;13.60;99.90
5711;DHT22;61291;52.524;13.422;2022-11-13T12:24:56;13.30;99.90
5711;DHT22;61291;52.524;13.422;2022-11-13T12:27:37;13.10;99.90
5711;DHT22;61291;52.524;13.422;2022-11-13T12:30:14;13.00;99.90
5711;DHT22;61291;52.524;13.422;2022-11-13T12:35:18;12.90;99.90
5711;DHT22;61291;52.524;13.422;2022-11-13T12:40:44;12.90;99.90
5711;DHT22;61291;52.524;13.422;2022-11-13T12:46:05;12.80;99.90
5711;DHT22;61291;52.524;13.422;2022-11-13T12:48:34;12.80;99.90
5711;DHT22;61291;52.524;13.422;2022-11-13T12:51:05;12.80;99.90
5711;DHT22;61291;52.524;13.422;2022-11-13T12:53:48;12.80;99.90
5711;DHT22;61291;52.524;13.422;2022-11-13T12:58:55;12.70;99.90
5711;DHT22;61291;52.524;13.422;2022-11-13T13:01:22;12.70;99.90
5711;DHT22;61291;52.524;13.422;2022-11-13T13:07:08;12.70;99.90
5711;DHT22;61291;52.524;13.422;2022-11-13T13:10:08;12.70;99.90
5711;DHT22;61291;52.524;13.422;2022-11-13T13:12:57;12.70;99.90
5711;DHT22;61291;52.524;13.422;2022-11-13T13:15:31;12.70;99.90
5711;DHT22;61291;52.524;13.422;2022-11-13T13:18:02;12.70;99.90
5711;DHT22;61291;52.524;13.422;2022-11-13T13:20:40;12.70;99.90
5711;DHT22;61291;52.524;13.422;2022-11-13T13:23:10;12.70;99.90
5711;DHT22;61291;52.524;13.422;2022-11-13T13:25:36;12.70;99.90
5711;DHT22;61291;52.524;13.422;2022-11-13T13:28:18;12.60;99.90
5711;DHT22;61291;52.524;13.422;2022-11-13T13:31:03;12.70;99.90
5711;DHT22;61291;52.524;13.422;2022-11-13T13:33:56;12.70;99.90
5711;DHT22;61291;52.524;13.422;2022-11-13T13:42:15;12.60;99.90
5711;DHT22;61291;52.524;13.422;2022-11-13T13:45:26;12.60;99.90
5711;DHT22;61291;52.524;13.422;2022-11-13T13:47:56;12.70;99.90
5711;DHT22;61291;52.524;13.422;2022-11-13T13:50:25;12.70;99.90
5711;DHT22;61291;52.524;13.422;2022-11-13T13:52:52;12.70;99.90
5711;DHT22;61291;52.524;13.422;2022-11-13T13:55:25;12.60;99.90
5711;DHT22;61291;52.524;13.422;2022-11-13T13:57:52;12.60;99.90
5711;DHT22;61291;52.524;13.422;2022-11-13T14:00:19;12.50;99.90
5711;DHT22;61291;52.524;13.422;2022-11-13T14:02:50;12.50;99.90
5711;DHT22;61291;52.524;13.422;2022-11-13T14:05:24;12.80;99.90
5711;DHT22;61291;52.524;13.422;2022-11-13T14:07:50;13.60;99.90
5711;DHT22;61291;52.524;13.422;2022-11-13T14:10:18;13.50;99.90
5711;DHT22;61291;52.524;13.422;2022-11-13T14:12:45;13.10;99.90
5711;DHT22;61291;52.524;13.422;2022-11-13T14:15:25;12.90;99.90
5711;DHT22;61291;52.524;13.422;2022-11-13T14:18:02;13.00;99.90
5711;DHT22;61291;52.524;13.422;2022-11-13T14:20:44;13.10;99.90
5711;DHT22;61291;52.524;13.422;2022-11-13T14:23:14;12.90;99.90
5711;DHT22;61291;52.524;13.422;2022-11-13T14:25:42;12.60;99.90
5711;DHT22;61291;52.524;13.422;2022-11-13T14:28:18;12.40;99.90
5711;DHT22;61291;52.524;13.422;2022-11-13T14:30:52;12.20;99.90
5711;DHT22;61291;52.524;13.422;2022-11-13T14:33:24;12.10;99.90
5711;DHT22;61291;52.524;13.422;2022-11-13T14:35:54;11.90;99.90
5711;DHT22;61291;52.524;13.422;2022-11-13T14:38:23;11.80;99.90
5711;DHT22;61291;52.524;13.422;2022-11-13T14:40:49;11.60;99.90
5711;DHT22;61291;52.524;13.422;2022-11-13T14:43:19;11.50;99.90
5711;DHT22;61291;52.524;13.422;2022-11-13T14:46:01;11.40;99.90
5711;DHT22;61291;52.524;13.422;2022-11-13T14:48:32;11.20;99.90
5711;DHT22;61291;52.524;13.422;2022-11-13T14:51:04;11.10;99.90
5711;DHT22;61291;52.524;13.422;2022-11-13T14:53:34;11.00;99.90
5711;DHT22;61291;52.524;13.422;2022-11-13T14:56:06;10.90;99.90
5711;DHT22;61291;52.524;13.422;2022-11-13T14:58:53;10.80;99.90
5711;DHT22;61291;52.524;13.422;2022-11-13T15:01:23;10.70;99.90
5711;DHT22;61291;52.524;13.422;2022-11-13T15:03:50;10.60;99.90
5711;DHT22;61291;52.524;13.422;2022-11-13T15:06:19;10.60;99.90
5711;DHT22;61291;52.524;13.422;2022-11-13T15:08:46;10.50;99.90
5711;DHT22;61291;52.524;13.422;2022-11-13T15:11:13;10.40;99.90
5711;DHT22;61291;52.524;13.422;2022-11-13T15:13:39;10.30;99.90
5711;DHT22;61291;52.524;13.422;2022-11-13T15:16:05;10.20;99.90
5711;DHT22;61291;52.524;13.422;2022-11-13T15:18:31;10.10;99.90
5711;DHT22;61291;52.524;13.422;2022-11-13T15:20:56;10.00;99.90
5711;DHT22;61291;52.524;13.422;2022-11-13T15:23:24;10.00;99.90
5711;DHT22;61291;52.524;13.422;2022-11-13T15:25:50;9.90;99.90
5711;DHT22;61291;52.524;13.422;2022-11-13T15:28:15;9.80;99.90
5711;DHT22;61291;52.524;13.422;2022-11-13T15:30:41;9.80;99.90
5711;DHT22;61291;52.524;13.422;2022-11-13T15:33:13;9.70;99.90
5711;DHT22;61291;52.524;13.422;2022-11-13T15:35:42;9.70;99.90
5711;DHT22;61291;52.524;13.422;2022-11-13T15:38:09;9.60;99.90
5711;DHT22;61291;52.524;13.422;2022-11-13T15:40:35;9.50;99.90
5711;DHT22;61291;52.524;13.422;2022-11-13T15:43:01;9.50;99.90
5711;DHT22;61291;52.524;13.422;2022-11-13T15:45:26;9.40;99.90
5711;DHT22;61291;52.524;13.422;2022-11-13T15:47:52;9.40;99.90
5711;DHT22;61291;52.524;13.422;2022-11-13T15:50:17;9.30;99.90
5711;DHT22;61291;52.524;13.422;2022-11-13T15:52:48;9.20;99.90
5711;DHT22;61291;52.524;13.422;2022-11-13T15:55:27;9.20;99.90
5711;DHT22;61291;52.524;13.422;2022-11-13T15:57:53;9.10;99.90
5711;DHT22;61291;52.524;13.422;2022-11-13T16:00:22;9.00;99.90
5711;DHT22;61291;52.524;13.422;2022-11-13T16:02:55;9.00;99.90
5711;DHT22;61291;52.524;13.422;2022-11-13T16:05:23;9.00;99.90
5711;DHT22;61291;52.524;13.422;2022-11-13T16:07:50;9.00;99.90
5711;DHT22;61291;52.524;13.422;2022-11-13T16:10:16;9.00;99.90
5711;DHT22;61291;52.524;13.422;2022-11-13T16:12:42;8.90;99.90
5711;DHT22;61291;52.524;13.422;2022-11-13T16:15:08;8.80;99.90
5711;DHT22;61291;52.524;13.422;2022-11-13T16:17:46;8.80;99.90
5711;DHT22;61291;52.524;13.422;2022-11-13T16:20:14;8.90;99.90
5711;DHT22;61291;52.524;13.422;2022-11-13T16:22:41;8.90;99.90
5711;DHT22;61291;52.524;13.422;2022-11-13T16:25:11;8.90;99.90
5711;DHT22;61291;52.524;13.422;2022-11-13T16:27:37;8.80;99.90
5711;DHT22;61291;52.524;13.422;2022-11-13T16:30:03;8.80;99.90
5711;DHT22;61291;52.524;13.422;2022-11-13T16:32:29;8.70;99.90